createdAt,value
2023-02-25T00:01:08.419Z,99875.97
2023-02-25T00:03:36.060Z,99893.50
2023-02-25T00:06:03.891Z,99888.69
2023-02-25T00:08:30.349Z,99885.22
2023-02-25T00:11:01.951Z,99882.66
2023-02-25T00:13:28.788Z,99880.81
2023-02-25T00:15:58.470Z,99880.94
2023-02-25T00:18:26.838Z,99888.34
2023-02-25T00:20:53.189Z,99871.75
2023-02-25T00:23:20.231Z,99866.78
2023-02-25T00:25:47.153Z,99880.06
2023-02-25T00:28:13.711Z,99880.84
2023-02-25T00:30:40.812Z,99887.97
2023-02-25T00:33:07.409Z,99882.84
2023-02-25T00:35:34.534Z,99905.47
2023-02-25T00:38:14.933Z,99909.66
2023-02-25T00:40:42.458Z,99921.13
2023-02-25T00:43:08.900Z,99931.16
2023-02-25T00:45:35.704Z,99924.50
2023-02-25T00:48:02.108Z,99926.63
2023-02-25T00:50:28.466Z,99930.34
2023-02-25T00:52:54.890Z,99933.47
2023-02-25T00:55:21.302Z,99932.91
2023-02-25T00:57:47.703Z,99949.16
2023-02-25T01:00:17.012Z,99955.31
2023-02-25T01:02:45.496Z,99934.97
2023-02-25T01:05:15.225Z,99945.72
2023-02-25T01:07:42.379Z,99951.78
2023-02-25T01:10:10.919Z,99945.53
2023-02-25T01:12:37.757Z,99947.88
2023-02-25T01:15:04.984Z,99955.16
2023-02-25T01:17:31.513Z,99965.50
2023-02-25T01:19:58.046Z,99963.78
2023-02-25T01:22:24.638Z,99971.56
2023-02-25T01:24:51.074Z,99968.94
2023-02-25T01:27:17.458Z,99965.41
2023-02-25T01:29:43.831Z,99965.81
2023-02-25T01:32:13.988Z,99956.66
2023-02-25T01:34:41.179Z,99970.13
2023-02-25T01:37:07.907Z,99967.84
2023-02-25T01:39:34.453Z,99972.56
2023-02-25T01:42:03.228Z,99986.97
2023-02-25T01:44:32.198Z,99984.66
2023-02-25T01:46:58.801Z,99978.06
2023-02-25T01:49:30.740Z,99987.03
2023-02-25T01:52:07.339Z,99972.19
2023-02-25T01:54:35.711Z,99982.78
2023-02-25T01:57:04.552Z,99984.72
2023-02-25T01:59:31.602Z,99988.59
2023-02-25T02:01:58.020Z,99987.44
2023-02-25T02:04:26.159Z,99991.31
2023-02-25T02:06:54.667Z,99987.75
2023-02-25T02:09:26.610Z,99987.38
2023-02-25T02:11:53.098Z,100004.63
2023-02-25T02:14:27.732Z,99993.47
2023-02-25T02:17:05.974Z,100007.28
2023-02-25T02:19:32.512Z,100005.78
2023-02-25T02:22:18.505Z,99999.72
2023-02-25T02:25:09.736Z,100017.59
2023-02-25T02:28:05.539Z,100023.03
2023-02-25T02:31:06.085Z,100025.56
2023-02-25T02:34:10.292Z,100018.31
2023-02-25T02:36:49.543Z,100010.41
2023-02-25T02:39:45.592Z,100022.69
2023-02-25T02:42:22.332Z,100017.44
2023-02-25T02:44:56.575Z,100010.97
2023-02-25T02:47:31.180Z,100023.81
2023-02-25T02:50:10.132Z,100027.84
2023-02-25T02:52:48.772Z,100025.41
2023-02-25T02:55:22.344Z,100020.34
2023-02-25T02:57:52.550Z,100022.72
2023-02-25T03:00:28.622Z,100042.84
2023-02-25T03:02:59.697Z,100038.94
2023-02-25T03:05:28.169Z,100038.59
2023-02-25T03:08:06.979Z,100038.44
2023-02-25T03:10:33.734Z,100038.88
2023-02-25T03:13:01.654Z,100053.06
2023-02-25T03:15:29.587Z,100057.69
2023-02-25T03:18:00.346Z,100115.19
2023-02-25T03:20:40.583Z,100072.38
2023-02-25T03:23:12.736Z,100080.69
2023-02-25T03:25:47.387Z,100076.16
2023-02-25T03:28:23.857Z,100076.75
2023-02-25T03:31:00.402Z,100081.25
2023-02-25T03:33:31.904Z,100085.44
2023-02-25T03:35:58.652Z,100091.03
2023-02-25T03:38:27.419Z,100091.84
2023-02-25T03:40:55.078Z,100099.63
2023-02-25T03:43:25.934Z,100088.53
2023-02-25T03:45:53.076Z,100098.84
2023-02-25T03:48:21.286Z,100096.47
2023-02-25T03:50:53.809Z,100105.75
2023-02-25T03:53:20.291Z,100102.06
2023-02-25T03:55:47.369Z,100121.03
2023-02-25T03:58:13.744Z,100119.50
2023-02-25T04:00:41.081Z,100131.41
2023-02-25T04:03:07.500Z,100121.88
2023-02-25T04:05:36.102Z,100141.00
2023-02-25T04:08:02.941Z,100137.72
2023-02-25T04:10:29.870Z,100166.31
2023-02-25T04:12:56.323Z,100155.53
2023-02-25T04:15:22.958Z,100167.66
2023-02-25T04:17:49.331Z,100151.00
2023-02-25T04:20:17.309Z,100154.00
2023-02-25T04:22:43.974Z,100154.69
2023-02-25T04:25:10.779Z,100160.31
2023-02-25T04:27:37.513Z,100166.84
2023-02-25T04:30:04.697Z,100154.69
2023-02-25T04:32:31.175Z,100158.25
2023-02-25T04:35:02.958Z,100162.03
2023-02-25T04:37:30.199Z,100151.66
2023-02-25T04:39:56.688Z,100157.63
2023-02-25T04:42:23.799Z,100159.59
2023-02-25T04:44:50.949Z,100159.84
2023-02-25T04:47:18.961Z,100162.59
2023-02-25T04:49:45.421Z,100164.75
2023-02-25T04:52:13.020Z,100162.22
2023-02-25T04:54:39.604Z,100160.22
2023-02-25T04:57:07.003Z,100171.66
2023-02-25T04:59:33.459Z,100157.91
2023-02-25T05:02:00.783Z,100166.41
2023-02-25T05:04:27.347Z,100158.03
2023-02-25T05:06:53.848Z,100169.88
2023-02-25T05:09:21.213Z,100170.25
2023-02-25T05:11:47.625Z,100168.09
2023-02-25T05:14:15.099Z,100178.59
2023-02-25T05:16:41.853Z,100187.66
2023-02-25T05:19:08.856Z,100186.53
2023-02-25T05:21:35.376Z,100176.41
2023-02-25T05:24:02.952Z,100183.09
2023-02-25T05:26:29.326Z,100180.66
2023-02-25T05:28:58.768Z,100189.13
2023-02-25T05:31:25.950Z,100185.88
2023-02-25T05:33:53.005Z,100194.13
2023-02-25T05:36:19.556Z,100200.09
2023-02-25T05:38:46.007Z,100199.09
2023-02-25T05:41:13.287Z,100194.41
2023-02-25T05:43:40.426Z,100203.63
2023-02-25T05:46:11.739Z,100210.13
2023-02-25T05:48:39.457Z,100211.56
2023-02-25T05:51:09.022Z,100198.47
2023-02-25T05:53:35.451Z,100221.59
2023-02-25T05:56:06.706Z,100220.47
2023-02-25T05:58:33.661Z,100225.16
2023-02-25T06:01:00.515Z,100224.00
2023-02-25T06:03:26.995Z,100225.75
2023-02-25T06:05:53.472Z,100226.06
2023-02-25T06:08:19.857Z,100230.59
2023-02-25T06:10:46.272Z,100231.78
2023-02-25T06:13:12.621Z,100225.06
2023-02-25T06:15:41.154Z,100235.03
2023-02-25T06:18:08.120Z,100237.19
2023-02-25T06:20:35.349Z,100235.56
2023-02-25T06:23:02.514Z,100254.13
2023-02-25T06:25:30.246Z,100256.03
2023-02-25T06:27:57.642Z,100276.53
2023-02-25T06:30:24.556Z,100279.47
2023-02-25T06:32:51.259Z,100268.56
2023-02-25T06:35:18.371Z,100255.69
2023-02-25T06:37:44.748Z,100283.09
2023-02-25T06:40:15.520Z,100264.03
2023-02-25T06:42:42.056Z,100275.09
2023-02-25T06:45:09.748Z,100281.53
2023-02-25T06:47:36.121Z,100276.75
2023-02-25T06:50:02.941Z,100281.88
2023-02-25T06:52:29.393Z,100284.41
2023-02-25T06:54:55.917Z,100286.97
2023-02-25T06:57:22.308Z,100301.09
2023-02-25T06:59:48.700Z,100287.41
2023-02-25T07:02:15.670Z,100294.25
2023-02-25T07:04:43.958Z,100310.25
2023-02-25T07:07:10.697Z,100316.41
2023-02-25T07:09:37.165Z,100322.34
2023-02-25T07:12:03.735Z,100321.56
2023-02-25T07:14:30.269Z,100330.72
2023-02-25T07:16:59.046Z,100347.41
2023-02-25T07:19:25.509Z,100339.16
2023-02-25T07:21:51.881Z,100348.25
2023-02-25T07:24:18.320Z,100360.38
2023-02-25T07:26:44.749Z,100383.44
2023-02-25T07:29:11.209Z,100380.78
2023-02-25T07:31:37.753Z,100365.69
2023-02-25T07:34:04.451Z,100374.38
2023-02-25T07:36:35.794Z,100386.09
2023-02-25T07:39:06.793Z,100395.16
2023-02-25T07:41:33.504Z,100388.38
2023-02-25T07:43:59.993Z,100392.50
2023-02-25T07:46:26.492Z,100403.06
2023-02-25T07:48:52.949Z,100393.25
2023-02-25T07:51:21.969Z,100403.47
2023-02-25T07:53:49.573Z,100393.25
2023-02-25T07:56:17.901Z,100388.72
2023-02-25T07:58:44.530Z,100391.03
2023-02-25T08:01:33.094Z,100406.09
2023-02-25T08:04:04.121Z,100391.34
2023-02-25T08:06:30.826Z,100404.19
2023-02-25T08:08:57.353Z,100401.19
2023-02-25T08:11:26.046Z,100404.94
2023-02-25T08:13:52.767Z,100407.97
2023-02-25T08:16:20.980Z,100415.13
2023-02-25T08:18:47.753Z,100416.56
2023-02-25T08:21:18.286Z,100431.34
2023-02-25T08:23:44.991Z,100426.81
2023-02-25T08:26:11.463Z,100432.88
2023-02-25T08:28:38.305Z,100432.91
2023-02-25T08:31:07.594Z,100426.13
2023-02-25T08:33:34.112Z,100437.44
2023-02-25T08:36:12.930Z,100434.41
2023-02-25T08:38:39.472Z,100438.94
2023-02-25T08:41:07.100Z,100446.50
2023-02-25T08:43:33.926Z,100451.78
2023-02-25T08:46:01.416Z,100453.28
2023-02-25T08:48:28.264Z,100466.84
2023-02-25T08:50:55.583Z,100457.44
2023-02-25T08:53:22.755Z,100485.00
2023-02-25T08:55:49.425Z,100479.72
2023-02-25T08:58:15.806Z,100478.22
2023-02-25T09:00:42.378Z,100477.09
2023-02-25T09:03:10.193Z,100489.19
2023-02-25T09:05:38.141Z,100505.72
2023-02-25T09:08:04.951Z,100525.03
2023-02-25T09:10:48.365Z,100506.09
2023-02-25T09:13:17.462Z,100509.16
2023-02-25T09:15:44.036Z,100509.91
2023-02-25T09:18:11.840Z,100510.69
2023-02-25T09:20:38.363Z,100521.63
2023-02-25T09:23:04.878Z,100515.94
2023-02-25T09:25:31.382Z,100523.91
2023-02-25T09:27:57.906Z,100525.75
2023-02-25T09:30:24.620Z,100542.06
2023-02-25T09:32:53.377Z,100537.16
2023-02-25T09:35:21.047Z,100542.41
2023-02-25T09:37:47.473Z,100549.97
2023-02-25T09:40:18.818Z,100595.25
2023-02-25T09:43:27.154Z,100583.84
2023-02-25T09:46:07.637Z,100583.94
2023-02-25T09:48:41.339Z,100579.78
2023-02-25T09:51:19.077Z,100580.19
2023-02-25T09:54:08.498Z,100587.75
2023-02-25T09:56:35.173Z,100587.00
2023-02-25T09:59:01.664Z,100601.38
2023-02-25T10:01:41.021Z,100628.56
2023-02-25T10:04:15.040Z,100608.16
2023-02-25T10:06:45.092Z,100638.28
2023-02-25T10:09:38.987Z,100630.78
2023-02-25T10:12:20.466Z,100648.84
2023-02-25T10:15:06.049Z,100632.25
2023-02-25T10:17:51.416Z,100645.16
2023-02-25T10:20:38.646Z,100666.31
2023-02-25T10:23:27.930Z,100657.63
2023-02-25T10:26:07.305Z,100650.38
2023-02-25T10:28:34.798Z,100684.00
2023-02-25T10:31:08.905Z,100692.75
2023-02-25T10:33:38.237Z,100653.88
2023-02-25T10:36:10.471Z,100656.56
2023-02-25T10:38:42.083Z,100659.22
2023-02-25T10:41:08.509Z,100687.56
2023-02-25T10:43:35.527Z,100679.88
2023-02-25T10:46:05.886Z,100670.06
2023-02-25T10:48:32.661Z,100674.69
2023-02-25T10:51:12.751Z,100678.41
2023-02-25T10:53:40.764Z,100679.25
2023-02-25T10:56:08.212Z,100680.75
2023-02-25T10:58:44.414Z,100692.50
2023-02-25T11:01:17.065Z,100684.94
2023-02-25T11:03:58.827Z,100702.88
2023-02-25T11:06:31.659Z,100695.88
2023-02-25T11:08:59.873Z,100735.22
2023-02-25T11:11:34.665Z,100720.44
2023-02-25T11:14:14.541Z,100737.78
2023-02-25T11:16:44.128Z,100704.22
2023-02-25T11:19:18.108Z,100719.72
2023-02-25T11:21:44.857Z,100724.56
2023-02-25T11:24:23.611Z,100720.13
2023-02-25T11:26:52.279Z,100723.88
2023-02-25T11:29:24.987Z,100734.47
2023-02-25T11:31:54.453Z,100751.47
2023-02-25T11:34:23.415Z,100723.88
2023-02-25T11:36:51.287Z,100722.34
2023-02-25T11:39:21.247Z,100740.84
2023-02-25T11:41:49.834Z,100740.47
2023-02-25T11:44:29.618Z,100723.13
2023-02-25T11:47:20.972Z,100731.09
2023-02-25T11:50:05.242Z,100737.81
2023-02-25T11:52:36.131Z,100739.69
2023-02-25T11:55:12.650Z,100748.09
2023-02-25T11:58:05.729Z,100757.81
2023-02-25T12:01:04.731Z,100797.91
2023-02-25T12:03:47.311Z,100762.78
2023-02-25T12:06:44.500Z,100760.94
2023-02-25T12:09:45.084Z,100773.03
2023-02-25T12:12:55.257Z,100771.53
2023-02-25T12:15:42.172Z,100784.75
2023-02-25T12:18:23.819Z,100789.72
2023-02-25T12:21:08.629Z,100788.97
2023-02-25T12:23:53.625Z,100772.97
2023-02-25T12:26:47.931Z,100781.41
2023-02-25T12:29:25.160Z,100799.13
2023-02-25T12:32:13.183Z,100787.06
2023-02-25T12:35:17.532Z,100794.25
2023-02-25T12:38:02.790Z,100784.03
2023-02-25T12:40:39.428Z,100809.03
2023-02-25T12:43:11.418Z,100801.84
2023-02-25T12:45:49.892Z,100806.34
2023-02-25T12:48:48.834Z,100792.75
2023-02-25T12:51:46.530Z,100805.63
2023-02-25T12:54:39.144Z,100801.06
2023-02-25T12:57:27.090Z,100821.50
2023-02-25T13:00:02.641Z,100835.03
2023-02-25T13:02:44.349Z,100823.31
2023-02-25T13:05:42.221Z,100861.59
2023-02-25T13:08:25.891Z,100834.31
2023-02-25T13:11:10.636Z,100835.13
2023-02-25T13:13:55.108Z,100824.50
2023-02-25T13:16:49.502Z,100837.38
2023-02-25T13:19:39.496Z,100819.22
2023-02-25T13:22:38.412Z,100826.81
2023-02-25T13:25:21.152Z,100842.72
2023-02-25T13:28:14.552Z,100853.59
2023-02-25T13:31:05.689Z,100846.53
2023-02-25T13:33:46.240Z,100871.44
2023-02-25T13:36:42.441Z,100849.88
2023-02-25T13:39:46.822Z,100857.06
2023-02-25T13:42:40.965Z,100866.88
2023-02-25T13:45:30.693Z,100854.44
2023-02-25T13:48:05.825Z,100860.13
2023-02-25T13:51:00.306Z,100879.03
2023-02-25T13:53:37.262Z,100862.78
2023-02-25T13:56:26.891Z,100877.53
2023-02-25T13:59:18.144Z,100878.97
2023-02-25T14:02:00.582Z,100872.63
2023-02-25T14:05:04.497Z,100882.81
2023-02-25T14:07:48.085Z,100896.06
2023-02-25T14:10:32.266Z,100888.09
2023-02-25T14:13:16.359Z,100891.16
2023-02-25T14:15:58.938Z,100888.88
2023-02-25T14:18:38.568Z,100890.41
2023-02-25T14:21:32.917Z,100906.25
2023-02-25T14:24:08.568Z,100911.53
2023-02-25T14:26:53.750Z,100906.31
2023-02-25T14:29:56.216Z,100936.16
2023-02-25T14:32:34.973Z,100945.69
2023-02-25T14:35:39.096Z,100947.56
2023-02-25T14:38:15.050Z,100943.00
2023-02-25T14:40:50.029Z,100934.31
2023-02-25T14:43:27.983Z,100931.31
2023-02-25T14:46:10.659Z,100935.84
2023-02-25T14:49:15.754Z,100944.94
2023-02-25T14:52:14.322Z,100949.84
2023-02-25T14:55:02.392Z,100954.06
2023-02-25T14:57:57.249Z,100969.13
2023-02-25T15:00:36.865Z,100966.13
2023-02-25T15:03:41.687Z,100952.13
2023-02-25T15:06:22.015Z,100960.09
2023-02-25T15:09:03.866Z,100961.59
2023-02-25T15:11:50.548Z,100970.72
2023-02-25T15:14:35.720Z,100961.56
2023-02-25T15:17:18.237Z,100973.34
2023-02-25T15:20:27.086Z,100978.97
2023-02-25T15:23:08.676Z,100981.94
2023-02-25T15:25:41.217Z,100981.91
2023-02-25T15:28:29.477Z,100982.69
2023-02-25T15:31:02.504Z,100985.81
2023-02-25T15:33:42.644Z,100992.63
2023-02-25T15:36:15.146Z,100979.34
2023-02-25T15:39:06.083Z,101007.41
2023-02-25T15:41:32.737Z,100985.00
2023-02-25T15:44:01.427Z,100995.63
2023-02-25T15:46:38.851Z,101000.25
2023-02-25T15:49:12.783Z,101004.78
2023-02-25T15:51:51.508Z,100985.03
2023-02-25T15:54:30.265Z,101003.19
2023-02-25T15:57:05.134Z,101003.97
2023-02-25T15:59:52.946Z,100989.59
2023-02-25T16:02:35.012Z,101009.66
2023-02-25T16:05:14.796Z,100999.47
2023-02-25T16:07:46.357Z,101004.41
2023-02-25T16:10:18.836Z,101003.25
2023-02-25T16:12:49.521Z,100994.84
2023-02-25T16:15:23.617Z,101000.22
2023-02-25T16:17:50.191Z,101011.53
2023-02-25T16:20:26.110Z,101016.03
2023-02-25T16:22:57.077Z,101019.75
2023-02-25T16:25:44.158Z,101018.03
2023-02-25T16:28:21.734Z,101024.97
2023-02-25T16:31:18.603Z,101031.78
2023-02-25T16:34:12.997Z,101024.63
2023-02-25T16:37:02.254Z,101031.72
2023-02-25T16:39:30.166Z,101028.69
2023-02-25T16:42:02.300Z,101033.00
2023-02-25T16:44:33.465Z,101028.78
2023-02-25T16:47:00.114Z,101043.13
2023-02-25T16:49:39.443Z,101049.16
2023-02-25T16:52:07.712Z,101049.97
2023-02-25T16:54:37.739Z,101063.56
2023-02-25T16:57:07.257Z,101049.84
2023-02-25T16:59:36.238Z,101053.94
2023-02-25T17:02:23.183Z,101062.94
2023-02-25T17:04:54.799Z,101071.78
2023-02-25T17:07:27.725Z,101076.72
2023-02-25T17:10:01.917Z,101081.47
2023-02-25T17:12:31.031Z,101090.63
2023-02-25T17:14:59.615Z,101093.75
2023-02-25T17:17:34.001Z,101097.75
2023-02-25T17:20:06.550Z,101087.31
2023-02-25T17:22:35.326Z,101098.22
2023-02-25T17:25:03.979Z,101092.97
2023-02-25T17:27:30.810Z,101113.78
2023-02-25T17:29:57.738Z,101125.25
2023-02-25T17:32:27.290Z,101122.72
2023-02-25T17:34:57.519Z,101118.78
2023-02-25T17:37:26.120Z,101123.28
2023-02-25T17:39:53.529Z,101131.19
2023-02-25T17:42:37.045Z,101131.34
2023-02-25T17:45:07.235Z,101127.69
2023-02-25T17:47:35.751Z,101145.84
2023-02-25T17:50:20.064Z,101149.22
2023-02-25T17:52:48.349Z,101164.09
2023-02-25T17:55:27.376Z,101188.94
2023-02-25T17:57:57.818Z,101180.19
2023-02-25T18:00:32.356Z,101202.59
2023-02-25T18:03:22.071Z,101194.06
2023-02-25T18:05:59.940Z,101188.38
2023-02-25T18:08:28.839Z,101215.22
2023-02-25T18:11:03.453Z,101210.06
2023-02-25T18:13:36.108Z,101201.41
2023-02-25T18:16:28.705Z,101199.88
2023-02-25T18:18:55.800Z,101196.63
2023-02-25T18:21:22.443Z,101189.09
2023-02-25T18:23:51.005Z,101196.59
2023-02-25T18:26:21.863Z,101196.84
2023-02-25T18:28:48.587Z,101195.28
2023-02-25T18:31:16.774Z,101192.50
2023-02-25T18:33:43.290Z,101205.94
2023-02-25T18:36:11.912Z,101206.69
2023-02-25T18:38:38.375Z,101211.56
2023-02-25T18:41:08.355Z,101213.50
2023-02-25T18:43:39.875Z,101213.97
2023-02-25T18:46:06.287Z,101216.75
2023-02-25T18:48:32.898Z,101216.97
2023-02-25T18:50:59.316Z,101218.06
2023-02-25T18:53:26.831Z,101229.41
2023-02-25T18:55:54.457Z,101234.03
2023-02-25T18:58:21.826Z,101219.63
2023-02-25T19:00:51.978Z,101235.41
2023-02-25T19:03:34.925Z,101231.28
2023-02-25T19:06:01.314Z,101232.19
2023-02-25T19:08:27.721Z,101235.88
2023-02-25T19:10:54.417Z,101228.47
2023-02-25T19:13:31.459Z,101234.50
2023-02-25T19:15:57.991Z,101236.22
2023-02-25T19:18:24.488Z,101246.75
2023-02-25T19:20:51.012Z,101251.94
2023-02-25T19:23:19.030Z,101235.75
2023-02-25T19:25:47.403Z,101248.47
2023-02-25T19:28:14.238Z,101237.56
2023-02-25T19:30:42.713Z,101241.69
2023-02-25T19:33:10.694Z,101252.31
2023-02-25T19:35:39.694Z,101250.56
2023-02-25T19:38:08.368Z,101262.94
2023-02-25T19:40:36.466Z,101261.63
2023-02-25T19:43:04.700Z,101261.19
2023-02-25T19:45:31.415Z,101266.94
2023-02-25T19:47:58.016Z,101271.63
2023-02-25T19:50:25.585Z,101271.81
2023-02-25T19:52:53.752Z,101269.25
2023-02-25T19:55:20.452Z,101267.03
2023-02-25T19:57:47.286Z,101269.34
2023-02-25T20:00:18.452Z,101264.31
2023-02-25T20:02:44.973Z,101278.78
2023-02-25T20:05:11.982Z,101279.47
2023-02-25T20:07:38.609Z,101292.44
2023-02-25T20:10:06.703Z,101290.75
2023-02-25T20:12:33.108Z,101306.47
2023-02-25T20:14:59.487Z,101313.13
2023-02-25T20:17:26.176Z,101303.50
2023-02-25T20:19:52.632Z,101312.69
2023-02-25T20:22:21.268Z,101307.09
2023-02-25T20:24:48.759Z,101311.91
2023-02-25T20:27:15.637Z,101314.31
2023-02-25T20:29:42.314Z,101312.84
2023-02-25T20:32:08.871Z,101312.41
2023-02-25T20:34:35.550Z,101327.13
2023-02-25T20:37:15.142Z,101331.47
2023-02-25T20:39:49.526Z,101325.84
2023-02-25T20:42:20.048Z,101330.69
2023-02-25T20:44:51.851Z,101328.06
2023-02-25T20:47:21.492Z,101325.84
2023-02-25T20:49:48.368Z,101326.84
2023-02-25T20:52:15.793Z,101327.66
2023-02-25T20:54:42.536Z,101333.09
2023-02-25T20:57:14.245Z,101325.16
2023-02-25T20:59:40.637Z,101333.81
2023-02-25T21:02:07.896Z,101334.66
2023-02-25T21:04:34.418Z,101338.50
2023-02-25T21:07:01.126Z,101351.97
2023-02-25T21:09:27.612Z,101350.75
2023-02-25T21:11:54.307Z,101350.16
2023-02-25T21:14:21.003Z,101354.72
2023-02-25T21:16:47.503Z,101356.84
2023-02-25T21:19:13.933Z,101364.38
2023-02-25T21:21:40.549Z,101360.84
2023-02-25T21:24:10.332Z,101365.69
2023-02-25T21:26:39.754Z,101362.09
2023-02-25T21:29:07.005Z,101381.06
2023-02-25T21:31:33.634Z,101381.91
2023-02-25T21:34:00.618Z,101377.06
2023-02-25T21:36:27.144Z,101377.88
2023-02-25T21:38:53.649Z,101389.56
2023-02-25T21:41:20.520Z,101397.56
2023-02-25T21:43:46.945Z,101389.31
2023-02-25T21:46:16.110Z,101389.56
2023-02-25T21:48:44.065Z,101395.81
2023-02-25T21:51:18.870Z,101391.69
2023-02-25T21:53:45.579Z,101388.34
2023-02-25T21:56:15.061Z,101385.94
2023-02-25T21:58:41.598Z,101400.00
2023-02-25T22:01:20.357Z,101399.44
2023-02-25T22:03:47.327Z,101391.03
2023-02-25T22:06:15.825Z,101392.19
2023-02-25T22:08:44.567Z,101393.59
2023-02-25T22:11:16.898Z,101394.00
2023-02-25T22:13:43.398Z,101396.16
2023-02-25T22:16:11.025Z,101398.78
2023-02-25T22:18:38.006Z,101408.84
2023-02-25T22:21:15.109Z,101412.38
2023-02-25T22:23:45.468Z,101417.94
2023-02-25T22:26:14.868Z,101404.75
2023-02-25T22:28:42.505Z,101406.31
2023-02-25T22:31:11.100Z,101404.66
2023-02-25T22:33:37.758Z,101415.06
2023-02-25T22:36:05.303Z,101440.78
2023-02-25T22:38:34.242Z,101418.63
2023-02-25T22:41:04.057Z,101425.88
2023-02-25T22:43:31.373Z,101429.91
2023-02-25T22:46:09.269Z,101436.81
2023-02-25T22:48:36.960Z,101435.53
2023-02-25T22:51:03.890Z,101447.81
2023-02-25T22:53:30.500Z,101443.03
2023-02-25T22:56:04.281Z,101453.66
2023-02-25T22:58:31.171Z,101450.72
2023-02-25T23:00:57.727Z,101454.94
2023-02-25T23:03:24.455Z,101453.56
2023-02-25T23:05:52.621Z,101461.91
2023-02-25T23:08:21.260Z,101456.69
2023-02-25T23:10:47.865Z,101472.75
2023-02-25T23:13:14.352Z,101470.81
2023-02-25T23:15:41.780Z,101481.03
2023-02-25T23:18:09.421Z,101472.69
2023-02-25T23:20:38.984Z,101478.94
2023-02-25T23:23:06.721Z,101485.97
2023-02-25T23:25:36.738Z,101490.88
2023-02-25T23:28:04.339Z,101493.78
2023-02-25T23:30:30.854Z,101484.75
2023-02-25T23:32:57.889Z,101493.63
2023-02-25T23:35:24.883Z,101500.41
2023-02-25T23:37:51.845Z,101513.50
2023-02-25T23:40:18.308Z,101507.00
2023-02-25T23:42:44.971Z,101504.72
2023-02-25T23:45:13.779Z,101508.91
2023-02-25T23:47:42.762Z,101529.59
2023-02-25T23:50:11.651Z,101514.91
2023-02-25T23:52:38.654Z,101527.06
2023-02-25T23:55:06.811Z,101526.66
2023-02-25T23:57:33.955Z,101528.06
